Terminal Aerodrome Forecast
Issued by NWS Knoxville/Tri Cities, TN

Home | Current Version | Previous Version | Text Only | Print | Product List | Glossary On
Versions: 1 2 3 4 5 6 7 8 9 10 11 12 13 14 15 16
000
FTUS44 KMRX 272320
TAFTRI
TAF
KTRI 272320Z 2800/2824 VRB03KT P6SM SCT050 BKN150
     FM280800 00000KT 4SM BR SCT150
     FM281300 23006KT P6SM SCT150
     FM282000 23010KT P6SM BKN050=

USA.gov is the U.S. government's official web portal to all federal, state and local government web resources and services.